Time;durP1;ratioP1;P1;durP2;ratioP2;P2;SDS_P1;SDS_P2;PMS_P1;PMS_P2;Temp;Humidity;BMP_temperature;BMP_pressure;BME280_temperature;BME280_humidity;BME280_pressure;Samples;Min_cycle;Max_cycle;Signal;HPM_P1;HPM_P2
2021/09/02 00:00:20;;;;;;;18.65;10.02;;;;;;;17.68;93.13;102822.56;5041230;28;20483;-63
2021/09/02 00:02:46;;;;;;;24.00;10.43;;;;;;;17.66;93.30;102813.03;5041481;28;20167;-63
2021/09/02 00:05:13;;;;;;;23.42;10.20;;;;;;;17.66;92.91;102816.56;5045572;28;20508;-63
2021/09/02 00:07:39;;;;;;;24.08;10.02;;;;;;;17.65;92.91;102819.34;5041481;28;20662;-63
2021/09/02 00:10:06;;;;;;;23.65;10.30;;;;;;;17.63;92.98;102822.16;5042000;28;20060;-65
2021/09/02 00:12:33;;;;;;;20.95;9.55;;;;;;;17.63;92.22;102816.84;5041461;28;20140;-63
2021/09/02 00:14:59;;;;;;;22.45;9.48;;;;;;;17.58;92.10;102819.06;5040720;28;20373;-62
2021/09/02 00:17:26;;;;;;;21.98;9.40;;;;;;;17.58;92.55;102809.31;5047717;28;20118;-63
2021/09/02 00:19:52;;;;;;;27.70;10.27;;;;;;;17.56;92.63;102807.78;5040285;28;20905;-63
2021/09/02 00:22:20;;;;;;;21.10;9.77;;;;;;;17.54;92.90;102807.06;5047848;28;20147;-63
2021/09/02 00:24:46;;;;;;;20.83;9.20;;;;;;;17.50;93.56;102806.53;5037467;28;20140;-63
2021/09/02 00:27:12;;;;;;;19.83;9.30;;;;;;;17.51;93.03;102810.03;5041740;28;20160;-63
2021/09/02 00:29:39;;;;;;;21.77;10.20;;;;;;;17.46;92.83;102804.31;5046702;28;20049;-62
2021/09/02 00:32:06;;;;;;;19.65;9.35;;;;;;;17.46;92.87;102805.13;5039970;28;20491;-63
2021/09/02 00:34:32;;;;;;;20.63;9.38;;;;;;;17.47;93.21;102806.00;5047295;28;20131;-63
2021/09/02 00:36:59;;;;;;;17.45;8.65;;;;;;;17.45;93.78;102798.19;5040539;28;20579;-63
2021/09/02 00:39:25;;;;;;;19.83;9.43;;;;;;;17.50;92.51;102805.69;5042483;28;20155;-63
2021/09/02 00:41:52;;;;;;;18.50;9.60;;;;;;;17.46;92.10;102802.50;5034770;28;20596;-63
2021/09/02 00:44:35;;;;;;;23.70;9.73;;;;;;;17.41;92.69;102810.06;5044365;28;20480;-62
2021/09/02 00:47:07;;;;;;;20.80;8.75;;;;;;;17.37;93.55;102806.84;5028796;28;20255;-63
2021/09/02 00:49:34;;;;;;;17.52;9.18;;;;;;;17.37;93.29;102806.84;5041166;28;20136;-62
2021/09/02 00:52:13;;;;;;;24.27;8.93;;;;;;;17.36;92.84;102810.47;5042136;28;20112;-61
2021/09/02 00:54:46;;;;;;;17.48;8.45;;;;;;;17.37;92.77;102798.06;5037222;28;20365;-63
2021/09/02 00:57:18;;;;;;;16.90;8.32;;;;;;;17.36;93.49;102801.69;5046174;28;20112;-63
2021/09/02 00:59:57;;;;;;;16.75;8.18;;;;;;;17.34;93.26;102799.16;5040986;28;20716;-63
2021/09/02 01:02:27;;;;;;;18.75;7.78;;;;;;;17.33;93.10;102800.16;5044506;28;20095;-63
2021/09/02 01:04:57;;;;;;;23.45;9.15;;;;;;;17.30;93.95;102803.09;5039205;28;20076;-63
2021/09/02 01:07:25;;;;;;;17.67;8.80;;;;;;;17.28;93.97;102799.75;5038847;28;20080;-63
2021/09/02 01:09:52;;;;;;;;;;;;;;;17.25;93.31;102802.69;5042274;28;20080;-62
2021/09/02 01:12:25;;;;;;;18.37;7.90;;;;;;;17.25;93.34;102805.34;5042538;28;20467;-63
2021/09/02 01:14:52;;;;;;;17.00;8.27;;;;;;;17.21;92.99;102801.31;5047047;28;20127;-62
2021/09/02 01:17:20;;;;;;;16.90;8.23;;;;;;;17.24;91.25;102793.03;5038094;28;20134;-62
2021/09/02 01:19:49;;;;;;;21.23;8.52;;;;;;;17.19;92.57;102790.84;5040634;28;20132;-63
2021/09/02 01:22:15;;;;;;;16.35;8.70;;;;;;;17.21;92.67;102790.69;5031380;28;20139;-63
2021/09/02 01:24:43;;;;;;;23.85;9.02;;;;;;;17.17;92.91;102782.19;5046318;28;20053;-63
2021/09/02 01:27:10;;;;;;;17.20;7.95;;;;;;;17.18;92.45;102788.31;5038055;28;20077;-62
2021/09/02 01:29:36;;;;;;;19.58;9.20;;;;;;;17.16;92.55;102779.66;5045869;28;20083;-63
2021/09/02 01:32:03;;;;;;;21.50;10.35;;;;;;;17.12;91.66;102784.41;5043505;28;20164;-63
2021/09/02 01:34:29;;;;;;;16.83;8.85;;;;;;;17.16;91.44;102784.97;5036565;28;20056;-63
2021/09/02 01:36:56;;;;;;;25.77;10.60;;;;;;;17.18;91.02;102783.00;5040688;28;20088;-63
2021/09/02 01:39:22;;;;;;;20.20;10.00;;;;;;;17.16;91.13;102785.81;5038759;28;20145;-63
2021/09/02 01:41:49;;;;;;;24.42;10.90;;;;;;;17.20;90.74;102789.84;5044664;28;20131;-62
2021/09/02 01:44:15;;;;;;;24.70;10.98;;;;;;;17.24;90.46;102787.75;5038880;28;20144;-63
2021/09/02 01:46:42;;;;;;;24.77;10.57;;;;;;;17.24;90.24;102790.41;5044327;28;20215;-63
2021/09/02 01:49:08;;;;;;;24.02;11.13;;;;;;;17.25;90.27;102780.63;5040345;28;20041;-62
2021/09/02 01:51:35;;;;;;;23.73;12.18;;;;;;;17.19;91.17;102777.56;5031141;28;20129;-63
2021/09/02 01:54:01;;;;;;;29.38;11.73;;;;;;;17.19;91.97;102782.06;5045416;28;20524;-62
2021/09/02 01:56:28;;;;;;;28.90;11.73;;;;;;;17.17;91.95;102786.63;5037168;28;20055;-62
2021/09/02 01:58:54;;;;;;;27.38;11.88;;;;;;;17.18;92.10;102783.84;5046066;28;20136;-61
2021/09/02 02:01:21;;;;;;;23.00;11.57;;;;;;;17.22;92.01;102794.19;5031987;28;20090;-62
2021/09/02 02:03:47;;;;;;;27.60;12.20;;;;;;;17.21;91.53;102780.09;5038539;28;20705;-62
2021/09/02 02:06:14;;;;;;;23.75;11.88;;;;;;;17.28;91.55;102788.31;5041285;28;20144;-63
2021/09/02 02:08:40;;;;;;;27.17;11.85;;;;;;;17.28;90.89;102783.81;5037450;28;20132;-62
2021/09/02 02:11:06;;;;;;;25.73;12.23;;;;;;;17.27;90.97;102782.16;5042851;28;20119;-62
2021/09/02 02:13:33;;;;;;;26.25;11.63;;;;;;;17.37;90.27;102780.31;5037986;28;20052;-63
2021/09/02 02:16:00;;;;;;;24.10;11.40;;;;;;;17.35;90.89;102771.69;5038953;28;20135;-61
2021/09/02 02:18:26;;;;;;;24.90;11.43;;;;;;;17.38;90.70;102774.03;5032505;28;20049;-63
2021/09/02 02:20:52;;;;;;;24.55;10.93;;;;;;;17.39;90.36;102765.09;5041715;28;20052;-62
2021/09/02 02:23:19;;;;;;;28.92;11.85;;;;;;;17.34;90.92;102766.50;5026314;28;20075;-63
2021/09/02 02:25:45;;;;;;;27.17;12.45;;;;;;;17.30;92.16;102765.13;5035044;28;20135;-62
2021/09/02 02:28:12;;;;;;;28.95;12.18;;;;;;;17.32;92.07;102771.13;5043434;28;20103;-63
2021/09/02 02:30:38;;;;;;;21.25;11.00;;;;;;;17.34;91.29;102775.28;5032907;28;20773;-63
2021/09/02 02:33:05;;;;;;;26.02;12.45;;;;;;;17.26;91.95;102777.81;5042921;28;20143;-63
2021/09/02 02:35:31;;;;;;;27.15;12.38;;;;;;;17.35;91.14;102774.31;5037505;28;20080;-63
2021/09/02 02:37:59;;;;;;;26.73;13.00;;;;;;;17.36;91.58;102777.81;5025885;28;20135;-62
2021/09/02 02:40:25;;;;;;;23.75;11.80;;;;;;;17.41;91.00;102778.22;5042525;28;20083;-61
2021/09/02 02:42:53;;;;;;;23.48;12.07;;;;;;;17.41;91.42;102775.56;5030971;28;20163;-62
2021/09/02 02:45:20;;;;;;;20.15;10.85;;;;;;;17.30;91.18;102771.25;5038755;28;20489;-63
2021/09/02 02:47:47;;;;;;;29.15;12.40;;;;;;;17.25;91.88;102772.66;5038425;28;20132;-62
2021/09/02 02:50:13;;;;;;;27.60;12.88;;;;;;;17.20;91.95;102765.16;5042044;28;20045;-63
2021/09/02 02:52:40;;;;;;;27.42;12.30;;;;;;;17.20;92.94;102775.75;5038252;28;20053;-63
2021/09/02 02:55:07;;;;;;;27.48;12.57;;;;;;;17.15;93.28;102778.84;5043709;28;20387;-63
2021/09/02 02:57:34;;;;;;;28.20;12.27;;;;;;;17.28;92.18;102780.34;5022721;28;20048;-63
2021/09/02 03:00:00;;;;;;;25.60;11.80;;;;;;;17.24;92.46;102771.84;5037066;28;20045;-63
2021/09/02 03:02:27;;;;;;;25.65;12.77;;;;;;;17.24;92.66;102776.31;5048610;28;20076;-62
2021/09/02 03:04:53;;;;;;;27.58;12.13;;;;;;;17.27;92.40;102771.56;5041025;28;20076;-63
2021/09/02 03:07:20;;;;;;;34.45;13.93;;;;;;;17.44;91.98;102769.97;5049820;28;20132;-63
2021/09/02 03:09:47;;;;;;;33.60;14.38;;;;;;;17.48;91.75;102773.16;5039618;28;20063;-63
2021/09/02 03:12:13;;;;;;;28.85;14.75;;;;;;;17.43;91.83;102772.78;5045281;28;20080;-63
2021/09/02 03:14:40;;;;;;;28.90;13.65;;;;;;;17.47;91.23;102769.69;5043064;28;20041;-63
2021/09/02 03:17:06;;;;;;;31.27;14.35;;;;;;;17.41;92.39;102764.97;5041593;28;20053;-63
2021/09/02 03:19:32;;;;;;;31.15;14.73;;;;;;;17.49;91.74;102774.84;5047772;28;20120;-63
2021/09/02 03:21:59;;;;;;;31.05;15.15;;;;;;;17.39;92.65;102773.06;5043137;28;20548;-62
2021/09/02 03:24:25;;;;;;;28.55;14.38;;;;;;;17.32;93.19;102769.28;5045458;28;20132;-61
2021/09/02 03:26:52;;;;;;;32.97;14.95;;;;;;;17.27;93.95;102778.66;5036628;28;20143;-63
2021/09/02 03:29:18;;;;;;;27.42;13.80;;;;;;;17.28;93.91;102778.53;5045892;28;20072;-63
2021/09/02 03:31:45;;;;;;;30.63;14.60;;;;;;;17.28;93.92;102780.34;5048401;28;20860;-63
2021/09/02 03:34:11;;;;;;;29.20;13.48;;;;;;;17.26;94.61;102777.00;5037229;28;20084;-61
2021/09/02 03:36:38;;;;;;;29.70;15.10;;;;;;;17.27;94.22;102778.66;5030677;28;20081;-63
2021/09/02 03:39:04;;;;;;;30.98;14.23;;;;;;;17.34;94.74;102780.59;5033673;28;20155;-63
2021/09/02 03:41:31;;;;;;;33.88;13.32;;;;;;;17.38;94.12;102774.03;5043490;28;20103;-63
2021/09/02 03:43:57;;;;;;;29.75;12.85;;;;;;;17.33;93.38;102770.16;5040348;28;20147;-62
2021/09/02 03:46:24;;;;;;;29.35;14.90;;;;;;;17.31;93.74;102772.94;5046044;28;20547;-63
2021/09/02 03:48:50;;;;;;;27.27;14.25;;;;;;;17.32;93.33;102771.94;5046068;28;20132;-63
2021/09/02 03:51:17;;;;;;;37.13;14.52;;;;;;;17.31;93.65;102765.00;5037238;28;20131;-61
2021/09/02 03:53:43;;;;;;;31.42;14.70;;;;;;;17.45;92.54;102773.47;5036897;28;20153;-60
2021/09/02 03:56:09;;;;;;;28.50;14.88;;;;;;;17.42;93.10;102769.28;5038836;28;20080;-63
2021/09/02 03:58:36;;;;;;;31.85;14.25;;;;;;;17.42;92.89;102765.78;5047100;28;20536;-62
2021/09/02 04:01:02;;;;;;;31.40;14.45;;;;;;;17.35;93.31;102762.88;5041010;28;20497;-63
2021/09/02 04:03:29;;;;;;;29.90;14.73;;;;;;;17.51;92.59;102778.19;5046941;28;20056;-63
2021/09/02 04:05:56;;;;;;;27.92;14.48;;;;;;;17.36;92.77;102769.84;5044159;28;20057;-61
2021/09/02 04:08:22;;;;;;;35.95;14.60;;;;;;;17.41;93.14;102769.44;5034525;28;20139;-63
2021/09/02 04:10:49;;;;;;;34.70;16.30;;;;;;;17.17;94.54;102766.28;5046619;28;20045;-63
2021/09/02 04:13:15;;;;;;;30.83;15.35;;;;;;;17.22;94.35;102760.53;5040542;28;20083;-63
2021/09/02 04:15:42;;;;;;;30.80;15.50;;;;;;;17.20;94.45;102763.31;5047407;28;20135;-62
2021/09/02 04:18:08;;;;;;;29.55;14.93;;;;;;;17.25;93.81;102764.72;5040753;28;20057;-62
2021/09/02 04:20:35;;;;;;;31.58;15.05;;;;;;;17.12;94.53;102763.19;5041955;28;20088;-63
2021/09/02 04:23:02;;;;;;;29.85;14.88;;;;;;;17.22;93.59;102770.31;5042521;28;20147;-63
2021/09/02 04:25:29;;;;;;;31.45;14.50;;;;;;;17.23;93.81;102762.22;5040580;28;20084;-63
2021/09/02 04:27:55;;;;;;;32.92;15.18;;;;;;;17.30;93.08;102759.81;5045596;28;20156;-63
2021/09/02 04:30:24;;;;;;;30.42;14.57;;;;;;;17.39;92.96;102758.97;5038456;28;20092;-63
2021/09/02 04:32:51;;;;;;;31.10;14.35;;;;;;;17.28;93.44;102765.25;5046101;28;20049;-63
2021/09/02 04:35:17;;;;;;;34.13;15.77;;;;;;;17.37;93.32;102766.22;5036772;28;20148;-62
2021/09/02 04:37:46;;;;;;;36.15;16.17;;;;;;;17.41;92.67;102769.44;5039738;28;20102;-62
2021/09/02 04:40:14;;;;;;;35.70;15.88;;;;;;;17.18;93.72;102769.75;5046124;28;20199;-63
2021/09/02 04:42:41;;;;;;;31.40;15.68;;;;;;;17.27;93.75;102762.75;5040760;28;20139;-63
2021/09/02 04:45:09;;;;;;;32.35;15.93;;;;;;;17.28;93.66;102767.91;5047711;28;20489;-62
2021/09/02 04:47:35;;;;;;;38.72;16.10;;;;;;;17.36;93.70;102770.69;5035678;28;20098;-63
2021/09/02 04:50:04;;;;;;;33.38;15.45;;;;;;;17.32;92.99;102766.66;5039323;28;20099;-63
2021/09/02 04:52:31;;;;;;;33.30;17.23;;;;;;;17.30;93.37;102771.25;5036407;28;20156;-63
2021/09/02 04:54:57;;;;;;;33.17;16.65;;;;;;;17.23;93.44;102774.63;5028759;28;20052;-63
2021/09/02 04:57:24;;;;;;;29.17;14.88;;;;;;;17.17;93.75;102776.88;5039301;28;20052;-63
2021/09/02 04:59:50;;;;;;;31.40;14.18;;;;;;;17.10;92.63;102774.94;5045722;28;20645;-63
2021/09/02 05:02:17;;;;;;;30.00;13.93;;;;;;;17.27;91.06;102773.34;5023513;28;20520;-63
2021/09/02 05:04:45;;;;;;;36.25;14.63;;;;;;;17.24;90.00;102777.13;5032663;28;20144;-63
2021/09/02 05:07:16;;;;;;;31.45;14.75;;;;;;;17.21;90.21;102780.09;5043951;28;20518;-61
2021/09/02 05:09:42;;;;;;;35.13;16.55;;;;;;;17.11;89.81;102782.75;5037521;28;20135;-63
2021/09/02 05:12:13;;;;;;;38.50;16.55;;;;;;;16.96;91.41;102789.47;5044415;28;20709;-63
2021/09/02 05:14:40;;;;;;;39.03;15.52;;;;;;;16.98;91.17;102785.69;5040059;28;20056;-63
2021/09/02 05:17:06;;;;;;;34.22;15.75;;;;;;;16.97;91.53;102780.53;5041079;28;20074;-63
2021/09/02 05:19:33;;;;;;;35.92;16.80;;;;;;;17.11;90.54;102777.47;5043907;28;20132;-63
2021/09/02 05:21:59;;;;;;;36.30;16.92;;;;;;;17.04;90.82;102781.63;5036446;28;20121;-63
2021/09/02 05:24:26;;;;;;;41.33;16.25;;;;;;;17.06;90.52;102784.16;5046180;28;20137;-63
2021/09/02 05:26:52;;;;;;;37.75;16.30;;;;;;;16.98;91.06;102784.84;5037183;28;20496;-63
2021/09/02 05:29:19;;;;;;;37.13;16.17;;;;;;;17.01;91.76;102781.91;5040774;28;20143;-63
2021/09/02 05:31:45;;;;;;;43.33;17.48;;;;;;;17.13;90.80;102778.16;5033077;28;20500;-62
2021/09/02 05:34:12;;;;;;;41.92;17.27;;;;;;;17.29;89.96;102777.56;5045112;28;20128;-63
2021/09/02 05:36:39;;;;;;;39.95;17.50;;;;;;;17.14;90.36;102781.63;5044924;28;20127;-63
2021/09/02 05:39:06;;;;;;;39.45;18.42;;;;;;;17.15;90.82;102770.88;5039200;28;20076;-63
2021/09/02 05:41:32;;;;;;;44.28;18.30;;;;;;;17.11;90.85;102772.16;5043925;28;20140;-63
2021/09/02 05:43:58;;;;;;;45.58;18.27;;;;;;;17.05;91.63;102770.03;5035666;28;20163;-63
2021/09/02 05:46:25;;;;;;;48.55;18.10;;;;;;;17.03;91.61;102769.34;5038373;28;20083;-63
2021/09/02 05:48:51;;;;;;;43.80;18.73;;;;;;;16.95;92.35;102778.00;5039737;28;20048;-63
2021/09/02 05:51:18;;;;;;;40.78;17.30;;;;;;;16.99;92.30;102771.47;5044207;28;20548;-62
2021/09/02 05:53:44;;;;;;;45.65;17.88;;;;;;;16.90;93.35;102777.59;5046925;28;20139;-63
2021/09/02 05:56:11;;;;;;;42.63;17.77;;;;;;;16.92;93.28;102778.31;5036268;28;20399;-63
2021/09/02 05:58:37;;;;;;;45.53;17.67;;;;;;;17.14;92.61;102773.66;5039813;28;20136;-63
2021/09/02 06:01:03;;;;;;;36.40;16.42;;;;;;;17.15;91.82;102772.69;5033195;28;20048;-63
2021/09/02 06:03:30;;;;;;;40.05;16.75;;;;;;;17.22;91.87;102776.44;5045763;28;20048;-63
2021/09/02 06:05:57;;;;;;;37.38;16.35;;;;;;;17.11;92.16;102774.81;5036113;28;20052;-63
2021/09/02 06:08:23;;;;;;;33.92;15.80;;;;;;;17.11;92.29;102773.94;5042037;28;20135;-63
2021/09/02 06:10:50;;;;;;;32.25;15.68;;;;;;;17.20;91.53;102770.44;5038751;28;20052;-63
2021/09/02 06:13:16;;;;;;;29.88;14.70;;;;;;;17.14;91.35;102776.31;5029900;28;20131;-63
2021/09/02 06:15:44;;;;;;;33.10;15.70;;;;;;;17.14;91.74;102781.63;5043748;28;20143;-63
2021/09/02 06:18:11;;;;;;;33.70;16.50;;;;;;;17.18;91.52;102772.41;5039103;28;20084;-63
2021/09/02 06:20:37;;;;;;;34.28;15.32;;;;;;;17.18;90.84;102780.38;5044158;28;20141;-62
2021/09/02 06:23:04;;;;;;;33.63;15.10;;;;;;;17.22;90.70;102771.13;5035252;28;20143;-63
2021/09/02 06:25:30;;;;;;;32.42;14.65;;;;;;;17.28;90.32;102773.22;5039034;28;20124;-63
2021/09/02 06:27:57;;;;;;;31.80;14.32;;;;;;;17.24;90.56;102774.47;5033876;28;20138;-63
2021/09/02 06:30:23;;;;;;;31.80;13.32;;;;;;;17.31;89.12;102780.06;5041456;28;20128;-64
2021/09/02 06:32:50;;;;;;;29.95;13.88;;;;;;;17.33;88.49;102778.94;5043445;28;20504;-62
2021/09/02 06:35:16;;;;;;;29.95;13.63;;;;;;;17.29;89.58;102787.31;5037503;28;20103;-62
2021/09/02 06:37:43;;;;;;;29.77;14.60;;;;;;;17.26;89.68;102782.31;5047240;28;20084;-63
2021/09/02 06:40:10;;;;;;;30.35;13.85;;;;;;;17.36;89.42;102786.59;5032904;28;20697;-62
2021/09/02 06:42:36;;;;;;;29.25;13.95;;;;;;;17.33;89.65;102786.06;5042016;28;20539;-63
2021/09/02 06:45:03;;;;;;;26.67;13.27;;;;;;;17.34;89.79;102796.50;5036298;28;20157;-61
2021/09/02 06:47:31;;;;;;;34.28;13.95;;;;;;;17.28;88.98;102786.47;5042877;28;20045;-65
2021/09/02 06:49:59;;;;;;;36.08;14.43;;;;;;;17.20;88.02;102789.84;5043219;28;20076;-63
2021/09/02 06:52:25;;;;;;;34.03;14.33;;;;;;;17.26;87.74;102787.59;5036954;28;20048;-63
2021/09/02 06:54:52;;;;;;;35.22;14.15;;;;;;;17.24;87.73;102778.97;5033993;28;20727;-63
2021/09/02 06:57:18;;;;;;;29.70;13.35;;;;;;;17.30;87.18;102781.03;5036374;28;20139;-63
2021/09/02 06:59:44;;;;;;;28.08;13.40;;;;;;;17.29;86.46;102788.16;5041402;28;20080;-63
2021/09/02 07:02:11;;;;;;;35.28;14.27;;;;;;;17.45;86.27;102779.59;5038186;28;20091;-63
2021/09/02 07:04:38;;;;;;;31.25;13.80;;;;;;;17.47;85.10;102774.16;5040834;28;20862;-63
2021/09/02 07:07:04;;;;;;;26.13;13.02;;;;;;;17.45;85.78;102776.97;5042415;28;20151;-62
2021/09/02 07:09:31;;;;;;;33.72;14.02;;;;;;;17.35;86.14;102776.97;5029784;28;20388;-63
2021/09/02 07:11:58;;;;;;;23.67;10.45;;;;;;;17.40;85.64;102779.19;5043898;28;20141;-63
2021/09/02 07:14:24;;;;;;;26.20;10.88;;;;;;;17.37;84.62;102777.66;5037224;28;20589;-63
2021/09/02 07:16:51;;;;;;;23.45;10.88;;;;;;;17.44;83.91;102782.41;5044884;28;20053;-63
2021/09/02 07:19:17;;;;;;;23.35;11.15;;;;;;;17.45;83.91;102784.09;5036840;28;20544;-63
2021/09/02 07:21:44;;;;;;;26.98;11.52;;;;;;;17.45;83.98;102782.25;5038456;28;20087;-63
2021/09/02 07:24:11;;;;;;;23.80;9.68;;;;;;;17.42;85.00;102789.66;5038000;28;20540;-63
2021/09/02 07:26:39;;;;;;;27.38;10.05;;;;;;;17.42;84.61;102787.00;5020072;28;20129;-63
2021/09/02 07:29:07;;;;;;;22.92;9.98;;;;;;;17.41;84.76;102788.00;5044128;28;20139;-63
2021/09/02 07:31:35;;;;;;;25.33;9.45;;;;;;;17.45;84.24;102792.03;5037771;28;20132;-63
2021/09/02 07:34:03;;;;;;;23.40;9.75;;;;;;;17.47;83.04;102793.56;5042258;28;20147;-63
2021/09/02 07:36:29;;;;;;;20.55;9.60;;;;;;;17.55;83.26;102803.47;5031511;28;20508;-63
2021/09/02 07:39:10;;;;;;;23.13;9.20;;;;;;;17.53;83.89;102795.63;5042805;28;20068;-63
2021/09/02 07:41:37;;;;;;;23.40;9.73;;;;;;;17.54;84.12;102804.44;5044243;28;20556;-63
2021/09/02 07:44:03;;;;;;;23.10;9.07;;;;;;;17.56;83.67;102798.00;5034713;28;20068;-62
2021/09/02 07:46:30;;;;;;;22.27;8.90;;;;;;;17.55;82.86;102798.97;5048453;28;20045;-63
2021/09/02 07:48:56;;;;;;;19.40;8.27;;;;;;;17.56;82.51;102802.47;5037521;28;20460;-63
2021/09/02 07:51:23;;;;;;;19.77;8.20;;;;;;;17.53;82.56;102800.94;5043448;28;20307;-63
2021/09/02 07:53:50;;;;;;;18.48;7.47;;;;;;;17.66;81.45;102808.59;5040313;28;20095;-63
2021/09/02 07:56:16;;;;;;;18.25;8.20;;;;;;;17.72;81.46;102796.53;5047684;28;20041;-62
2021/09/02 07:58:43;;;;;;;19.30;8.10;;;;;;;17.76;81.54;102801.44;5045520;28;20670;-63
2021/09/02 08:01:14;;;;;;;12.43;5.47;;;;;;;17.86;81.51;102797.94;5041998;28;20124;-63
2021/09/02 08:03:41;;;;;;;19.73;8.00;;;;;;;17.97;80.89;102808.34;5040676;28;20390;-63
2021/09/02 08:06:08;;;;;;;18.15;8.13;;;;;;;18.02;80.55;102810.59;5037167;28;20052;-63
2021/09/02 08:08:35;;;;;;;18.52;7.63;;;;;;;18.11;79.74;102807.88;5047442;28;20053;-63
2021/09/02 08:11:04;;;;;;;21.08;8.27;;;;;;;18.35;78.28;102812.63;5040151;28;20091;-62
2021/09/02 08:13:31;;;;;;;20.05;8.73;;;;;;;18.55;78.05;102817.81;5046968;28;20515;-63
2021/09/02 08:15:57;;;;;;;22.38;9.38;;;;;;;18.69;77.83;102811.97;5037341;28;20095;-63
2021/09/02 08:18:24;;;;;;;24.40;9.45;;;;;;;18.75;77.48;102807.88;5040286;28;20048;-62
2021/09/02 08:20:51;;;;;;;17.02;7.55;;;;;;;19.05;76.49;102808.47;5046307;28;20049;-63
2021/09/02 08:23:17;;;;;;;19.58;7.97;;;;;;;19.12;75.24;102810.38;5040369;28;20519;-62
2021/09/02 08:25:44;;;;;;;21.38;8.80;;;;;;;19.29;74.32;102805.19;5046804;28;20130;-63
2021/09/02 08:28:11;;;;;;;22.38;8.90;;;;;;;19.42;72.88;102805.56;5040020;28;20412;-63
2021/09/02 08:30:37;;;;;;;21.42;7.70;;;;;;;19.66;71.87;102812.88;5042432;28;21022;-63
2021/09/02 08:33:04;;;;;;;17.95;7.60;;;;;;;19.72;71.03;102809.63;5035735;28;20132;-63
2021/09/02 08:35:32;;;;;;;20.15;7.85;;;;;;;19.99;70.65;102807.72;5045115;28;20476;-63
2021/09/02 08:38:03;;;;;;;19.73;7.93;;;;;;;20.15;69.35;102813.13;5046392;28;20057;-63
2021/09/02 08:40:32;;;;;;;20.25;7.28;;;;;;;20.19;69.58;102823.44;5020838;28;20072;-63
2021/09/02 08:43:00;;;;;;;18.67;8.00;;;;;;;20.42;67.20;102815.69;5028083;28;20049;-63
2021/09/02 08:45:29;;;;;;;23.75;7.78;;;;;;;20.50;67.20;102811.22;5016679;28;20059;-62
2021/09/02 08:47:56;;;;;;;16.95;7.93;;;;;;;20.63;65.33;102809.94;5041306;28;20135;-63
2021/09/02 08:50:25;;;;;;;20.48;10.10;;;;;;;20.47;65.53;102808.88;5039412;28;20057;-63
2021/09/02 08:52:53;;;;;;;20.05;9.10;;;;;;;20.61;67.75;102806.59;5047153;28;20131;-61
2021/09/02 08:55:20;;;;;;;22.58;8.57;;;;;;;20.69;67.15;102803.94;5044989;28;20091;-63
2021/09/02 08:57:48;;;;;;;19.25;9.45;;;;;;;20.89;67.64;102807.09;5034590;28;20049;-62
2021/09/02 09:00:15;;;;;;;21.63;9.40;;;;;;;20.90;64.71;102811.47;5036765;28;20344;-63
2021/09/02 09:02:47;;;;;;;23.77;10.55;;;;;;;21.17;64.28;102810.28;5038874;28;20055;-63
2021/09/02 09:05:18;;;;;;;19.42;10.13;;;;;;;21.32;64.27;102815.75;5045242;28;20045;-63
2021/09/02 09:07:48;;;;;;;23.77;11.18;;;;;;;21.38;62.92;102809.72;5038994;28;20570;-63
2021/09/02 09:10:26;;;;;;;23.20;10.25;;;;;;;21.46;61.88;102804.44;5044169;28;20080;-63
2021/09/02 09:12:56;;;;;;;21.75;9.77;;;;;;;21.39;62.59;102814.06;5036271;28;20152;-63
2021/09/02 09:15:37;;;;;;;22.73;10.60;;;;;;;21.29;62.04;102806.25;5039694;28;20506;-62
2021/09/02 09:18:22;;;;;;;19.75;9.43;;;;;;;21.30;62.29;102809.75;5043559;28;20056;-63
2021/09/02 09:21:08;;;;;;;22.48;9.80;;;;;;;21.25;61.61;102807.59;5044613;28;20118;-63
2021/09/02 09:23:52;;;;;;;21.25;9.70;;;;;;;21.39;61.83;102805.25;5044291;28;20132;-63
2021/09/02 09:26:19;;;;;;;20.13;9.57;;;;;;;21.53;61.76;102808.06;5041390;28;20084;-62
2021/09/02 09:28:46;;;;;;;24.40;9.80;;;;;;;21.73;61.87;102803.16;5041248;28;20143;-62
2021/09/02 09:31:31;;;;;;;19.65;8.98;;;;;;;22.02;60.50;102803.56;5038322;28;20487;-61
2021/09/02 09:34:03;;;;;;;25.77;9.95;;;;;;;22.22;59.10;102809.28;5027966;28;20883;-62
2021/09/02 09:36:31;;;;;;;18.08;8.73;;;;;;;22.28;58.04;102803.25;5040559;28;20136;-63
2021/09/02 09:39:00;;;;;;;17.77;9.32;;;;;;;22.40;56.99;102796.50;5043590;28;20171;-63
2021/09/02 09:41:35;;;;;;;24.15;9.85;;;;;;;22.30;57.22;102801.25;5034357;28;20213;-62
2021/09/02 09:44:16;;;;;;;19.15;8.80;;;;;;;22.26;58.32;102797.25;5044312;28;20096;-62
2021/09/02 09:46:43;;;;;;;20.67;9.07;;;;;;;22.14;58.04;102788.78;5038302;28;20513;-61
2021/09/02 09:49:09;;;;;;;21.40;9.63;;;;;;;22.25;58.64;102796.44;5045064;28;20119;-63
2021/09/02 09:51:35;;;;;;;20.55;8.85;;;;;;;22.07;59.12;102794.00;5045537;28;20156;-62
2021/09/02 09:54:02;;;;;;;21.70;10.10;;;;;;;22.23;58.69;102795.75;5030014;28;20788;-62
2021/09/02 09:56:29;;;;;;;21.48;10.15;;;;;;;22.22;58.03;102790.56;5042061;28;20076;-62
2021/09/02 09:58:56;;;;;;;20.33;9.47;;;;;;;22.20;57.61;102796.09;5037920;28;20109;-62
2021/09/02 10:01:23;;;;;;;23.88;9.30;;;;;;;22.37;58.39;102799.53;5042915;28;20045;-63
2021/09/02 10:03:51;;;;;;;22.42;9.63;;;;;;;22.26;57.65;102791.91;5039091;28;20049;-62
2021/09/02 10:06:19;;;;;;;19.60;9.43;;;;;;;22.16;58.03;102796.63;5043275;28;20080;-63
2021/09/02 10:08:46;;;;;;;19.85;8.70;;;;;;;22.09;58.40;102791.13;5039495;28;20473;-63
2021/09/02 10:11:15;;;;;;;21.17;9.52;;;;;;;22.08;57.93;102792.97;5035521;28;20148;-62
2021/09/02 10:13:43;;;;;;;23.55;10.30;;;;;;;22.17;58.14;102791.13;5044938;28;20889;-62
2021/09/02 10:16:09;;;;;;;21.73;10.18;;;;;;;22.15;57.49;102785.13;5038073;28;20140;-62
2021/09/02 10:18:43;;;;;;;21.98;9.77;;;;;;;22.16;58.47;102781.41;5045809;28;20548;-63
2021/09/02 10:21:11;;;;;;;17.80;10.10;;;;;;;22.11;58.91;102776.63;5031822;28;20144;-62
2021/09/02 10:23:37;;;;;;;26.43;10.77;;;;;;;22.39;57.65;102773.47;5039082;28;20560;-62
2021/09/02 10:26:04;;;;;;;21.67;10.13;;;;;;;22.38;58.06;102768.28;5043743;28;20153;-62
2021/09/02 10:28:33;;;;;;;22.33;10.05;;;;;;;22.38;58.00;102765.59;5036584;28;20151;-62
2021/09/02 10:31:03;;;;;;;24.83;10.50;;;;;;;22.35;57.16;102765.97;5040844;28;20411;-62
2021/09/02 10:33:40;;;;;;;26.90;11.60;;;;;;;22.79;57.69;102767.97;5036415;28;20106;-62
2021/09/02 10:36:10;;;;;;;22.20;11.33;;;;;;;23.08;55.95;102765.38;5039885;28;20057;-62
2021/09/02 10:38:41;;;;;;;25.67;10.75;;;;;;;23.48;55.22;102759.75;5037538;28;20128;-63
2021/09/02 10:41:09;;;;;;;22.92;11.15;;;;;;;23.64;54.70;102764.13;5043860;28;20191;-63
2021/09/02 10:43:53;;;;;;;25.02;10.63;;;;;;;23.96;54.67;102767.41;5036971;28;20472;-62
2021/09/02 10:46:50;;;;;;;20.17;9.32;;;;;;;23.82;52.59;102761.88;5043428;28;20080;-62
2021/09/02 10:49:24;;;;;;;20.40;10.75;;;;;;;24.04;53.59;102762.75;5029452;28;20055;-63
2021/09/02 10:52:02;;;;;;;19.33;9.95;;;;;;;24.20;53.42;102760.84;5041537;28;20080;-63
2021/09/02 10:54:32;;;;;;;;;;;;;;;24.03;53.07;102755.75;5042335;28;20153;-63
2021/09/02 10:57:12;;;;;;;21.42;11.55;;;;;;;24.10;52.53;102758.50;5040208;28;20647;-63
2021/09/02 10:59:51;;;;;;;20.45;9.85;;;;;;;24.24;53.39;102749.56;5043824;28;20168;-63
2021/09/02 11:02:17;;;;;;;20.52;9.20;;;;;;;24.17;54.20;102755.88;5033442;28;20102;-63
2021/09/02 11:04:46;;;;;;;16.98;9.05;;;;;;;24.33;54.27;102752.97;5039328;28;21031;-63
2021/09/02 11:07:13;;;;;;;22.25;10.30;;;;;;;24.52;50.99;102756.88;5038140;28;20562;-63
2021/09/02 11:09:42;;;;;;;26.63;9.77;;;;;;;24.50;52.22;102758.88;5041751;28;20053;-63
2021/09/02 11:12:12;;;;;;;24.63;11.43;;;;;;;24.17;52.07;102759.41;5038575;28;20071;-63
2021/09/02 11:14:41;;;;;;;21.80;10.98;;;;;;;23.97;52.33;102755.66;5042919;28;20057;-63